Time;durP1;ratioP1;P1;durP2;ratioP2;P2;SDS_P1;SDS_P2;PMS_P1;PMS_P2;Temp;Humidity;BMP_temperature;BMP_pressure;BME280_temperature;BME280_humidity;BME280_pressure;Samples;Min_cycle;Max_cycle;Signal;HPM_P1;HPM_P2
2022/03/24 00:02:17;;;;;;;19.92;8.90;;;;;;;;;;5054902;28;20155;-72
2022/03/24 00:04:43;;;;;;;18.85;7.53;;;;;;;;;;5055925;28;20066;-72
2022/03/24 00:07:09;;;;;;;17.58;8.52;;;;;;;;;;5067946;28;20031;-71
2022/03/24 00:09:35;;;;;;;17.95;8.85;;;;;;;;;;5054187;28;20493;-73
2022/03/24 00:12:01;;;;;;;20.30;9.00;;;;;;;;;;5056175;28;20040;-73
2022/03/24 00:14:27;;;;;;;17.48;8.98;;;;;;;;;;5053255;28;20029;-71
2022/03/24 00:16:53;;;;;;;17.55;9.55;;;;;;;;;;5054230;28;20053;-72
2022/03/24 00:19:22;;;;;;;22.50;8.10;;;;;;;;;;5053322;28;20028;-73
2022/03/24 00:21:48;;;;;;;14.50;7.07;;;;;;;;;;5057968;28;20379;-72
2022/03/24 00:24:14;;;;;;;19.98;6.60;;;;;;;;;;5072786;28;20016;-72
2022/03/24 00:26:41;;;;;;;12.27;6.10;;;;;;;;;;5066891;28;20096;-70
2022/03/24 00:29:09;;;;;;;14.85;6.38;;;;;;;;;;5066667;28;20122;-74
2022/03/24 00:31:35;;;;;;;20.63;6.53;;;;;;;;;;5053176;28;20057;-72
2022/03/24 00:34:02;;;;;;;21.23;8.65;;;;;;;;;;5063964;28;20051;-73
2022/03/24 00:36:28;;;;;;;27.92;11.48;;;;;;;;;;5068967;28;20282;-72
2022/03/24 00:38:55;;;;;;;17.80;8.13;;;;;;;;;;5066666;28;20033;-72
2022/03/24 00:41:21;;;;;;;17.63;7.07;;;;;;;;;;5064148;28;20067;-72
2022/03/24 00:43:49;;;;;;;11.57;5.53;;;;;;;;;;5057083;28;20099;-72
2022/03/24 00:46:22;;;;;;;8.85;5.18;;;;;;;;;;5059033;28;20071;-75
2022/03/24 00:48:53;;;;;;;13.23;5.35;;;;;;;;;;5056884;28;20070;-72
2022/03/24 00:51:21;;;;;;;23.42;5.85;;;;;;;;;;5075763;28;20131;-73
2022/03/24 00:53:48;;;;;;;9.20;5.05;;;;;;;;;;5055702;28;20150;-74
2022/03/24 00:56:14;;;;;;;17.27;6.25;;;;;;;;;;5063210;28;20032;-76
2022/03/24 00:58:40;;;;;;;12.52;5.82;;;;;;;;;;5063695;28;20466;-72
2022/03/24 01:01:11;;;;;;;13.73;6.00;;;;;;;;;;5058135;28;20045;-73
2022/03/24 01:03:38;;;;;;;13.18;5.10;;;;;;;;;;5064253;28;20060;-73
2022/03/24 01:06:04;;;;;;;14.45;5.78;;;;;;;;;;5063343;28;20036;-73
2022/03/24 01:08:31;;;;;;;14.07;5.38;;;;;;;;;;5068147;28;20413;-73
2022/03/24 01:10:57;;;;;;;12.32;5.78;;;;;;;;;;5066613;28;20045;-73
2022/03/24 01:13:23;;;;;;;10.90;5.47;;;;;;;;;;5066982;28;20021;-72
2022/03/24 01:15:52;;;;;;;15.13;5.57;;;;;;;;;;5064517;28;20033;-72
2022/03/24 01:18:19;;;;;;;12.10;5.60;;;;;;;;;;5067746;28;20485;-72
2022/03/24 01:20:46;;;;;;;14.55;5.68;;;;;;;;;;5056310;28;20036;-73
2022/03/24 01:23:13;;;;;;;13.52;6.05;;;;;;;;;;5063468;28;20025;-72
2022/03/24 01:25:42;;;;;;;13.05;5.40;;;;;;;;;;5056067;28;20124;-72
2022/03/24 01:28:09;;;;;;;19.48;6.20;;;;;;;;;;5066860;28;20064;-73
2022/03/24 01:30:38;;;;;;;12.65;5.93;;;;;;;;;;5054859;28;20025;-72
2022/03/24 01:33:04;;;;;;;15.63;5.75;;;;;;;;;;5056801;28;20512;-73
2022/03/24 01:35:31;;;;;;;16.77;6.50;;;;;;;;;;5070420;28;20025;-72
2022/03/24 01:37:57;;;;;;;15.98;6.63;;;;;;;;;;5054252;28;20391;-73
2022/03/24 01:40:24;;;;;;;17.17;6.80;;;;;;;;;;5074408;28;20108;-73
2022/03/24 01:42:50;;;;;;;12.15;6.00;;;;;;;;;;5060385;28;20032;-72
2022/03/24 01:45:16;;;;;;;14.02;6.05;;;;;;;;;;5055660;28;20037;-71
2022/03/24 01:47:43;;;;;;;14.70;6.13;;;;;;;;;;5060109;28;20406;-72
2022/03/24 01:50:11;;;;;;;13.40;6.57;;;;;;;;;;5072552;28;20473;-72
2022/03/24 01:52:37;;;;;;;16.40;6.60;;;;;;;;;;5070820;28;20074;-73
2022/03/24 01:55:04;;;;;;;18.27;7.30;;;;;;;;;;5054382;28;20032;-73
2022/03/24 01:57:31;;;;;;;19.33;8.15;;;;;;;;;;5065926;28;20036;-72
2022/03/24 01:59:58;;;;;;;14.07;7.50;;;;;;;;;;5071596;28;20028;-72
2022/03/24 02:02:25;;;;;;;15.60;7.88;;;;;;;;;;5057391;28;20501;-73
2022/03/24 02:04:51;;;;;;;14.95;7.57;;;;;;;;;;5057550;28;20470;-72
2022/03/24 02:07:17;;;;;;;19.48;7.93;;;;;;;;;;5061313;28;20040;-73
2022/03/24 02:09:43;;;;;;;19.88;8.20;;;;;;;;;;5073505;28;20024;-73
2022/03/24 02:12:11;;;;;;;18.52;8.05;;;;;;;;;;5076458;28;20492;-72
2022/03/24 02:14:38;;;;;;;17.38;8.57;;;;;;;;;;5069025;28;20031;-72
2022/03/24 02:17:04;;;;;;;20.58;9.07;;;;;;;;;;5054352;28;20056;-72
2022/03/24 02:19:31;;;;;;;19.10;8.77;;;;;;;;;;5068745;28;20036;-72
2022/03/24 02:22:00;;;;;;;19.58;8.55;;;;;;;;;;5055880;28;20024;-73
2022/03/24 02:24:27;;;;;;;19.17;9.02;;;;;;;;;;5055555;28;20028;-76
2022/03/24 02:26:59;;;;;;;15.32;8.82;;;;;;;;;;5064794;28;20478;-73
2022/03/24 02:29:25;;;;;;;18.05;9.57;;;;;;;;;;5056227;28;20049;-73
2022/03/24 02:31:52;;;;;;;20.58;8.98;;;;;;;;;;5058473;28;20040;-72
2022/03/24 02:34:37;;;;;;;18.73;9.23;;;;;;;;;;5058870;28;20035;-73
2022/03/24 02:37:07;;;;;;;18.17;9.40;;;;;;;;;;5058224;28;20033;-73
2022/03/24 02:39:34;;;;;;;21.23;10.23;;;;;;;;;;5059484;28;20143;-73
2022/03/24 02:42:00;;;;;;;17.77;10.75;;;;;;;;;;5058604;28;20057;-72
2022/03/24 02:44:27;;;;;;;20.10;9.63;;;;;;;;;;5072472;28;20154;-76
2022/03/24 02:46:54;;;;;;;18.88;9.55;;;;;;;;;;5063706;28;20032;-72
2022/03/24 02:49:24;;;;;;;23.35;10.65;;;;;;;;;;5066172;28;20028;-72
2022/03/24 02:51:53;;;;;;;19.67;9.88;;;;;;;;;;5052967;28;20047;-72
2022/03/24 02:54:20;;;;;;;20.67;9.90;;;;;;;;;;5060528;28;20111;-72
2022/03/24 02:56:46;;;;;;;20.80;10.25;;;;;;;;;;5057625;28;20482;-73
2022/03/24 02:59:13;;;;;;;18.38;9.98;;;;;;;;;;5053593;28;20032;-72
2022/03/24 03:01:44;;;;;;;18.92;10.63;;;;;;;;;;5062685;28;20123;-73
2022/03/24 03:04:10;;;;;;;21.63;10.45;;;;;;;;;;5069648;28;20017;-72
2022/03/24 03:06:36;;;;;;;22.35;10.68;;;;;;;;;;5057814;28;20071;-73
2022/03/24 03:09:03;;;;;;;25.95;11.60;;;;;;;;;;5064163;28;20531;-73
2022/03/24 03:11:32;;;;;;;23.13;11.50;;;;;;;;;;5052900;28;20410;-72
2022/03/24 03:13:59;;;;;;;23.48;11.23;;;;;;;;;;5067898;28;20053;-73
2022/03/24 03:16:26;;;;;;;19.92;10.57;;;;;;;;;;5054012;28;20052;-75
2022/03/24 03:18:52;;;;;;;19.85;10.93;;;;;;;;;;5062265;28;20051;-71
2022/03/24 03:21:18;;;;;;;20.48;10.23;;;;;;;;;;5065209;28;20529;-72
2022/03/24 03:23:44;;;;;;;16.73;10.77;;;;;;;;;;5057994;28;20398;-73
2022/03/24 03:26:16;;;;;;;21.17;10.35;;;;;;;;;;5058420;28;20025;-72
2022/03/24 03:28:42;;;;;;;18.27;10.40;;;;;;;;;;5056738;28;20029;-71
2022/03/24 03:31:09;;;;;;;22.67;10.68;;;;;;;;;;5061457;28;20111;-75
2022/03/24 03:33:36;;;;;;;21.63;9.80;;;;;;;;;;5068340;28;20027;-74
2022/03/24 03:36:03;;;;;;;18.23;10.10;;;;;;;;;;5061044;28;20025;-74
2022/03/24 03:38:29;;;;;;;24.50;9.73;;;;;;;;;;5058615;28;20024;-72
2022/03/24 03:40:56;;;;;;;17.85;9.57;;;;;;;;;;5067140;28;20032;-71
2022/03/24 03:43:23;;;;;;;21.85;9.88;;;;;;;;;;5068197;28;20094;-70
2022/03/24 03:45:50;;;;;;;17.90;9.48;;;;;;;;;;5056637;28;20024;-72
2022/03/24 03:48:17;;;;;;;17.88;9.63;;;;;;;;;;5060100;28;20036;-72
2022/03/24 03:50:44;;;;;;;20.23;9.38;;;;;;;;;;5066270;28;20037;-73
2022/03/24 03:53:10;;;;;;;17.40;9.75;;;;;;;;;;5059427;28;20044;-72
2022/03/24 03:55:37;;;;;;;17.77;9.50;;;;;;;;;;5073586;28;20096;-72
2022/03/24 03:58:04;;;;;;;15.85;9.60;;;;;;;;;;5072462;28;20111;-72
2022/03/24 04:03:14;;;;;;;18.65;9.65;;;;;;;;;;5057502;28;20036;-72
2022/03/24 04:05:40;;;;;;;16.75;9.15;;;;;;;;;;5058372;28;20052;-72
2022/03/24 04:08:09;;;;;;;22.48;10.40;;;;;;;;;;5054740;28;20623;-73
2022/03/24 04:10:35;;;;;;;21.98;9.38;;;;;;;;;;5056812;28;20040;-71
2022/03/24 04:13:02;;;;;;;16.52;10.00;;;;;;;;;;5057363;28;20031;-71
2022/03/24 04:15:28;;;;;;;17.83;9.77;;;;;;;;;;5069645;28;20031;-74
2022/03/24 04:17:55;;;;;;;15.18;8.85;;;;;;;;;;5064409;28;20036;-75
2022/03/24 04:20:21;;;;;;;17.23;9.00;;;;;;;;;;5064762;28;20373;-72
2022/03/24 04:22:48;;;;;;;18.27;9.57;;;;;;;;;;5056442;28;20043;-72
2022/03/24 04:25:17;;;;;;;19.88;10.15;;;;;;;;;;5069555;28;20023;-73
2022/03/24 04:27:44;;;;;;;18.20;9.45;;;;;;;;;;5064248;28;20363;-72
2022/03/24 04:30:12;;;;;;;20.20;10.05;;;;;;;;;;5055842;28;20070;-71
2022/03/24 04:32:38;;;;;;;16.23;9.63;;;;;;;;;;5056114;28;20040;-73
2022/03/24 04:35:04;;;;;;;20.02;10.75;;;;;;;;;;5065627;28;20036;-72
2022/03/24 04:37:30;;;;;;;21.17;9.98;;;;;;;;;;5067555;28;20065;-72
2022/03/24 04:39:56;;;;;;;16.10;9.52;;;;;;;;;;5056181;28;20037;-72
2022/03/24 04:42:22;;;;;;;19.98;10.32;;;;;;;;;;5064257;28;20028;-72
2022/03/24 04:44:49;;;;;;;16.88;10.35;;;;;;;;;;5056217;28;20394;-72
2022/03/24 04:47:15;;;;;;;25.98;11.18;;;;;;;;;;5058950;28;20078;-72
2022/03/24 04:49:42;;;;;;;21.25;11.68;;;;;;;;;;5064341;28;20017;-72
2022/03/24 04:52:08;;;;;;;27.33;12.77;;;;;;;;;;5060941;28;20033;-72
2022/03/24 04:54:34;;;;;;;23.23;12.02;;;;;;;;;;5057210;28;20028;-72
2022/03/24 04:57:00;;;;;;;21.60;10.70;;;;;;;;;;5060164;28;20037;-71
2022/03/24 04:59:27;;;;;;;23.55;11.75;;;;;;;;;;5055687;28;20025;-72
2022/03/24 05:01:53;;;;;;;23.27;11.27;;;;;;;;;;5061549;28;20032;-72
2022/03/24 05:04:20;;;;;;;22.25;11.30;;;;;;;;;;5059373;28;20024;-72
2022/03/24 05:06:46;;;;;;;19.05;11.70;;;;;;;;;;5064614;28;20456;-73
2022/03/24 05:09:16;;;;;;;21.38;11.00;;;;;;;;;;5066587;28;20037;-76
2022/03/24 05:11:44;;;;;;;24.33;10.77;;;;;;;;;;5065267;28;20040;-75
2022/03/24 05:14:11;;;;;;;25.25;11.70;;;;;;;;;;5068547;28;20406;-76
2022/03/24 05:16:37;;;;;;;20.42;10.98;;;;;;;;;;5068292;28;20036;-73
2022/03/24 05:19:03;;;;;;;18.33;11.23;;;;;;;;;;5061159;28;20104;-73
2022/03/24 05:21:32;;;;;;;21.20;11.85;;;;;;;;;;5068715;28;20024;-73
2022/03/24 05:23:59;;;;;;;24.00;12.00;;;;;;;;;;5066108;28;20092;-73
2022/03/24 05:26:28;;;;;;;28.55;12.27;;;;;;;;;;5063902;28;20036;-73
2022/03/24 05:28:54;;;;;;;21.50;11.48;;;;;;;;;;5068867;28;20159;-73
2022/03/24 05:31:23;;;;;;;22.02;12.32;;;;;;;;;;5066864;28;20028;-76
2022/03/24 05:33:50;;;;;;;26.10;11.48;;;;;;;;;;5055791;28;20490;-79
2022/03/24 05:36:16;;;;;;;25.15;11.50;;;;;;;;;;5068519;28;20432;-79
2022/03/24 05:38:57;;;;;;;;;;;;;;;;;;;;;
2022/03/24 05:41:24;;;;;;;37.35;17.73;;;;;;;;;;5065459;28;20028;-76
2022/03/24 05:44:04;;;;;;;43.95;20.50;;;;;;;;;;5059318;28;20028;-78
2022/03/24 05:46:39;;;;;;;44.25;21.58;;;;;;;;;;5069976;28;20020;-71
2022/03/24 05:49:13;;;;;;;50.05;22.67;;;;;;;;;;5066050;28;20025;-74
2022/03/24 05:51:39;;;;;;;41.95;20.83;;;;;;;;;;5068635;28;20033;-71
2022/03/24 05:54:05;;;;;;;39.30;19.30;;;;;;;;;;5058656;28;20362;-78
2022/03/24 05:56:32;;;;;;;35.42;17.85;;;;;;;;;;5067372;28;20032;-77
2022/03/24 05:58:58;;;;;;;37.65;18.33;;;;;;;;;;5070246;28;20037;-75
2022/03/24 06:01:24;;;;;;;31.67;16.67;;;;;;;;;;5065793;28;20430;-74
2022/03/24 06:03:51;;;;;;;31.63;16.73;;;;;;;;;;5059080;28;20028;-75
2022/03/24 06:06:22;;;;;;;31.08;14.82;;;;;;;;;;5066181;28;20037;-74
2022/03/24 06:08:52;;;;;;;25.85;13.07;;;;;;;;;;5065819;28;20035;-75
2022/03/24 06:11:19;;;;;;;22.27;12.85;;;;;;;;;;5069071;28;20423;-74
2022/03/24 06:13:46;;;;;;;31.52;12.93;;;;;;;;;;5065533;28;20040;-75
2022/03/24 06:16:13;;;;;;;25.40;12.70;;;;;;;;;;5070286;28;20012;-72
2022/03/24 06:18:40;;;;;;;21.02;12.68;;;;;;;;;;5062783;28;20528;-74
2022/03/24 06:21:07;;;;;;;23.23;12.05;;;;;;;;;;5067203;28;20032;-76
2022/03/24 06:23:33;;;;;;;19.27;11.32;;;;;;;;;;5065987;28;20386;-75
2022/03/24 06:25:59;;;;;;;21.02;12.30;;;;;;;;;;5069347;28;20053;-77
2022/03/24 06:28:25;;;;;;;18.90;11.95;;;;;;;;;;5067760;28;20123;-75
2022/03/24 06:30:51;;;;;;;25.38;12.60;;;;;;;;;;5062654;28;20532;-75
2022/03/24 06:33:17;;;;;;;25.10;14.18;;;;;;;;;;5063362;28;20115;-77
2022/03/24 06:35:44;;;;;;;21.67;12.50;;;;;;;;;;5060053;28;20043;-78
2022/03/24 06:38:12;;;;;;;19.25;11.85;;;;;;;;;;5068703;28;20021;-72
2022/03/24 06:40:38;;;;;;;21.23;13.15;;;;;;;;;;5065055;28;20103;-71
2022/03/24 06:43:06;;;;;;;26.55;16.15;;;;;;;;;;5059777;28;20025;-73
2022/03/24 06:45:32;;;;;;;31.58;18.73;;;;;;;;;;5068139;28;20078;-74
2022/03/24 06:47:58;;;;;;;27.30;18.30;;;;;;;;;;5062525;28;20735;-78
2022/03/24 06:50:24;;;;;;;31.27;18.05;;;;;;;;;;5065192;28;20020;-75
2022/03/24 06:52:50;;;;;;;30.52;18.45;;;;;;;;;;5055188;28;20056;-74
2022/03/24 06:55:16;;;;;;;35.10;20.98;;;;;;;;;;5065319;28;20025;-74
2022/03/24 06:57:43;;;;;;;31.30;19.10;;;;;;;;;;5064618;28;20036;-77
2022/03/24 07:00:14;;;;;;;32.40;17.13;;;;;;;;;;5060396;28;20032;-75
2022/03/24 07:02:43;;;;;;;25.73;15.65;;;;;;;;;;5064182;28;20382;-77
2022/03/24 07:05:11;;;;;;;30.33;18.55;;;;;;;;;;5064884;28;20078;-75
2022/03/24 07:07:37;;;;;;;26.50;16.63;;;;;;;;;;5059842;28;20120;-84
2022/03/24 07:10:04;;;;;;;28.00;15.25;;;;;;;;;;5067893;28;20711;-82
2022/03/24 07:12:30;;;;;;;24.77;15.48;;;;;;;;;;5060765;28;20032;-90
2022/03/24 07:14:57;;;;;;;20.48;14.10;;;;;;;;;;5064215;28;20035;-86
2022/03/24 07:17:23;;;;;;;24.40;14.48;;;;;;;;;;5065573;28;20029;-79
2022/03/24 07:19:49;;;;;;;29.83;15.60;;;;;;;;;;5059122;28;20231;-83
2022/03/24 07:22:16;;;;;;;24.25;14.45;;;;;;;;;;5059520;28;20471;-78
2022/03/24 07:24:42;;;;;;;22.15;14.90;;;;;;;;;;5057984;28;20488;-75
2022/03/24 07:27:10;;;;;;;30.15;14.95;;;;;;;;;;5059435;28;20058;-74
2022/03/24 07:29:36;;;;;;;23.77;14.32;;;;;;;;;;5061952;28;20045;-73
2022/03/24 07:32:02;;;;;;;26.35;13.93;;;;;;;;;;5058698;28;20192;-74
2022/03/24 07:34:29;;;;;;;21.73;13.52;;;;;;;;;;5055076;28;20475;-78
2022/03/24 07:36:55;;;;;;;22.17;12.55;;;;;;;;;;5061077;28;20035;-72
2022/03/24 07:39:21;;;;;;;20.55;12.30;;;;;;;;;;5062919;28;20031;-72
2022/03/24 07:41:47;;;;;;;23.83;12.90;;;;;;;;;;5061003;28;20053;-73
2022/03/24 07:44:14;;;;;;;19.80;12.13;;;;;;;;;;5063630;28;20025;-73
2022/03/24 07:46:41;;;;;;;21.85;12.93;;;;;;;;;;5064641;28;20488;-73
2022/03/24 07:49:07;;;;;;;19.35;12.18;;;;;;;;;;5065744;28;20103;-76
2022/03/24 07:51:35;;;;;;;18.98;12.05;;;;;;;;;;5063148;28;20055;-74
2022/03/24 07:54:04;;;;;;;19.05;12.13;;;;;;;;;;5060595;28;20021;-73
2022/03/24 07:56:31;;;;;;;23.60;12.23;;;;;;;;;;5064181;28;20064;-74
2022/03/24 07:58:58;;;;;;;23.23;12.57;;;;;;;;;;5059455;28;20343;-74
2022/03/24 08:01:27;;;;;;;19.75;12.18;;;;;;;;;;5066580;28;20115;-76
2022/03/24 08:03:53;;;;;;;22.02;10.98;;;;;;;;;;5070590;28;20107;-74
2022/03/24 08:06:20;;;;;;;21.50;11.57;;;;;;;;;;5065683;28;20037;-75
2022/03/24 08:08:47;;;;;;;18.85;11.48;;;;;;;;;;5060207;28;20025;-76
2022/03/24 08:11:13;;;;;;;25.67;11.73;;;;;;;;;;5062823;28;20038;-76
2022/03/24 08:13:39;;;;;;;16.73;12.32;;;;;;;;;;5059136;28;20385;-74
2022/03/24 08:16:06;;;;;;;23.23;12.15;;;;;;;;;;5063115;28;20028;-78
2022/03/24 08:18:34;;;;;;;19.55;13.35;;;;;;;;;;5068114;28;20029;-79
2022/03/24 08:21:00;;;;;;;28.30;17.17;;;;;;;;;;5061708;28;20078;-75
2022/03/24 08:23:29;;;;;;;28.05;13.55;;;;;;;;;;5065189;28;20025;-86
2022/03/24 08:25:55;;;;;;;26.13;12.48;;;;;;;;;;5054636;28;20497;-77
2022/03/24 08:28:21;;;;;;;23.23;10.95;;;;;;;;;;5062343;28;20053;-75
2022/03/24 08:30:47;;;;;;;23.45;11.60;;;;;;;;;;5054579;28;20029;-82
2022/03/24 08:33:14;;;;;;;21.95;12.23;;;;;;;;;;5058254;28;20043;-78
2022/03/24 08:35:40;;;;;;;34.05;18.45;;;;;;;;;;5062182;28;20040;-77
2022/03/24 08:38:07;;;;;;;23.20;13.50;;;;;;;;;;5061652;28;20024;-77
2022/03/24 08:40:36;;;;;;;21.27;14.98;;;;;;;;;;5066533;28;20024;-75
2022/03/24 08:43:03;;;;;;;29.88;15.60;;;;;;;;;;5059677;28;20021;-76
2022/03/24 08:45:30;;;;;;;37.63;22.30;;;;;;;;;;5064349;28;20492;-76
2022/03/24 08:47:56;;;;;;;29.20;13.55;;;;;;;;;;5066229;28;20037;-75
2022/03/24 08:50:23;;;;;;;23.80;13.63;;;;;;;;;;5068252;28;20027;-76
2022/03/24 08:52:49;;;;;;;22.83;14.80;;;;;;;;;;5058331;28;20048;-74
2022/03/24 08:55:15;;;;;;;21.95;13.50;;;;;;;;;;5065682;28;20039;-75
2022/03/24 08:57:42;;;;;;;24.75;13.80;;;;;;;;;;5071009;28;20021;-76
2022/03/24 09:00:13;;;;;;;27.65;14.85;;;;;;;;;;5065891;28;20082;-76
2022/03/24 09:02:49;;;;;;;23.42;14.15;;;;;;;;;;5060359;28;20460;-75
2022/03/24 09:05:18;;;;;;;26.23;14.25;;;;;;;;;;5060512;28;20055;-83
2022/03/24 09:07:45;;;;;;;26.13;15.45;;;;;;;;;;5066868;28;20104;-74
2022/03/24 09:10:12;;;;;;;23.95;15.40;;;;;;;;;;5067686;28;20078;-73
2022/03/24 09:12:44;;;;;;;26.15;15.38;;;;;;;;;;5065966;28;20056;-76
2022/03/24 09:15:14;;;;;;;24.42;14.95;;;;;;;;;;5059614;28;20036;-75
2022/03/24 09:17:40;;;;;;;28.65;14.93;;;;;;;;;;5061334;28;20036;-76
2022/03/24 09:20:09;;;;;;;26.20;14.60;;;;;;;;;;5069771;28;20043;-75
2022/03/24 09:22:36;;;;;;;26.25;14.27;;;;;;;;;;5067917;28;20059;-80
2022/03/24 09:25:11;;;;;;;25.95;14.90;;;;;;;;;;5068957;28;20438;-80
2022/03/24 09:27:47;;;;;;;23.23;14.45;;;;;;;;;;5065703;28;20033;-73
2022/03/24 09:30:23;;;;;;;31.95;15.35;;;;;;;;;;5061701;28;20513;-77
2022/03/24 09:32:49;;;;;;;23.83;14.55;;;;;;;;;;5062773;28;20036;-72
2022/03/24 09:35:15;;;;;;;24.88;13.95;;;;;;;;;;5062675;28;20414;-78
2022/03/24 09:37:42;;;;;;;23.02;13.52;;;;;;;;;;5071267;28;20075;-74
2022/03/24 09:40:11;;;;;;;27.73;14.60;;;;;;;;;;5063459;28;20398;-76
2022/03/24 09:42:38;;;;;;;26.17;13.48;;;;;;;;;;5067585;28;20099;-83
2022/03/24 09:45:05;;;;;;;19.70;12.23;;;;;;;;;;5067636;28;20036;-74
2022/03/24 09:47:32;;;;;;;22.48;12.45;;;;;;;;;;5065877;28;20028;-81
2022/03/24 09:49:58;;;;;;;19.92;10.73;;;;;;;;;;5059025;28;20044;-73
2022/03/24 09:52:25;;;;;;;26.75;11.70;;;;;;;;;;5068713;28;20036;-74
2022/03/24 09:54:51;;;;;;;24.40;11.13;;;;;;;;;;5062640;28;20024;-82
2022/03/24 09:57:17;;;;;;;20.75;9.55;;;;;;;;;;5065343;28;20070;-77
2022/03/24 09:59:44;;;;;;;19.27;8.98;;;;;;;;;;5066383;28;20469;-75
2022/03/24 10:02:10;;;;;;;18.38;9.95;;;;;;;;;;5070527;28;20032;-75
2022/03/24 10:04:45;;;;;;;19.08;11.90;;;;;;;;;;5062283;28;20029;-79
2022/03/24 10:07:12;;;;;;;15.88;8.23;;;;;;;;;;5067376;28;20033;-78
2022/03/24 10:09:44;;;;;;;15.80;7.88;;;;;;;;;;5068053;28;20021;-85
2022/03/24 10:12:31;;;;;;;18.95;8.00;;;;;;;;;;5069362;28;20069;-81
2022/03/24 10:15:11;;;;;;;19.63;8.00;;;;;;;;;;5070360;28;20020;-75
2022/03/24 10:17:38;;;;;;;14.18;7.18;;;;;;;;;;5060365;28;20504;-72
2022/03/24 10:20:05;;;;;;;15.95;7.20;;;;;;;;;;5060809;28;20036;-85
2022/03/24 10:22:32;;;;;;;16.00;7.60;;;;;;;;;;5069155;28;20032;-84
2022/03/24 10:24:59;;;;;;;16.40;7.18;;;;;;;;;;5065598;28;20166;-78
2022/03/24 10:27:26;;;;;;;18.40;7.38;;;;;;;;;;5062468;28;20147;-74
2022/03/24 10:29:54;;;;;;;13.93;7.53;;;;;;;;;;5070981;28;20074;-73
2022/03/24 10:32:20;;;;;;;19.13;7.43;;;;;;;;;;5071815;28;20394;-74
2022/03/24 10:34:48;;;;;;;15.88;6.50;;;;;;;;;;5068240;28;20017;-74
2022/03/24 10:37:18;;;;;;;14.40;6.65;;;;;;;;;;5066366;28;20079;-71
2022/03/24 10:40:02;;;;;;;16.42;7.22;;;;;;;;;;5063864;28;20024;-74
2022/03/24 10:42:30;;;;;;;17.00;7.22;;;;;;;;;;5069355;28;20016;-80
2022/03/24 10:45:09;;;;;;;17.25;7.60;;;;;;;;;;5073113;28;20024;-76
2022/03/24 10:47:43;;;;;;;14.32;7.53;;;;;;;;;;5063027;28;20058;-77
2022/03/24 10:50:23;;;;;;;18.27;10.80;;;;;;;;;;5081633;28;20021;-74
2022/03/24 10:52:51;;;;;;;24.60;10.02;;;;;;;;;;5061282;28;20124;-74
2022/03/24 10:55:32;;;;;;;19.17;7.82;;;;;;;;;;5061048;28;20033;-76
2022/03/24 10:57:58;;;;;;;27.40;7.55;;;;;;;;;;5061811;28;20032;-76
2022/03/24 11:00:25;;;;;;;13.38;7.00;;;;;;;;;;5056447;28;20119;-75
2022/03/24 11:02:54;;;;;;;11.18;6.50;;;;;;;;;;5061636;28;20040;-79
2022/03/24 11:05:20;;;;;;;14.43;6.50;;;;;;;;;;5059342;28;20107;-73
2022/03/24 11:07:56;;;;;;;16.73;7.05;;;;;;;;;;5066359;28;20025;-72
2022/03/24 11:10:23;;;;;;;12.57;6.50;;;;;;;;;;5063771;28;20032;-71
2022/03/24 11:12:50;;;;;;;19.10;6.90;;;;;;;;;;5063637;28;20078;-73
2022/03/24 11:15:16;;;;;;;14.13;5.85;;;;;;;;;;5063997;28;20067;-71
2022/03/24 11:17:42;;;;;;;14.85;6.95;;;;;;;;;;5060788;28;20436;-71
2022/03/24 11:20:15;;;;;;;14.20;6.90;;;;;;;;;;5064767;28;20024;-72
2022/03/24 11:23:01;;;;;;;20.58;10.75;;;;;;;;;;5062723;28;20478;-73
2022/03/24 11:25:29;;;;;;;23.70;9.60;;;;;;;;;;5063297;28;20024;-75
2022/03/24 11:27:56;;;;;;;12.73;7.38;;;;;;;;;;5061140;28;20470;-74
2022/03/24 11:33:17;;;;;;;11.60;7.13;;;;;;;;;;5066293;28;20119;-74
2022/03/24 11:35:43;;;;;;;13.82;7.30;;;;;;;;;;5063733;28;20090;-71
2022/03/24 11:38:10;;;;;;;12.60;6.60;;;;;;;;;;5065047;28;20071;-72
2022/03/24 11:40:36;;;;;;;15.57;7.75;;;;;;;;;;5068977;28;20094;-71
2022/03/24 11:43:16;;;;;;;17.20;11.48;;;;;;;;;;5060330;28;20063;-71
2022/03/24 11:45:49;;;;;;;17.52;8.32;;;;;;;;;;5061072;28;20032;-72
2022/03/24 11:48:16;;;;;;;12.73;7.00;;;;;;;;;;5061299;28;20096;-71
2022/03/24 11:50:47;;;;;;;14.48;7.00;;;;;;;;;;5067620;28;20024;-73
2022/03/24 11:53:16;;;;;;;17.95;6.95;;;;;;;;;;5063839;28;20032;-67
2022/03/24 11:56:05;;;;;;;12.85;7.07;;;;;;;;;;5063312;28;20155;-69
2022/03/24 11:58:35;;;;;;;27.00;9.85;;;;;;;;;;5064496;28;20064;-70
2022/03/24 12:01:21;;;;;;;15.90;7.22;;;;;;;;;;5066620;28;20047;-71
2022/03/24 12:03:51;;;;;;;39.13;17.75;;;;;;;;;;4998094;28;20117;-71
2022/03/24 12:06:18;;;;;;;15.85;8.10;;;;;;;;;;5003269;28;20030;-69
2022/03/24 12:08:49;;;;;;;20.83;10.50;;;;;;;;;;5004531;28;20038;-71
2022/03/24 12:11:33;;;;;;;18.75;6.72;;;;;;;;;;5004658;28;20026;-73
2022/03/24 12:14:07;;;;;;;13.10;6.95;;;;;;;;;;5000816;28;20038;-73
2022/03/24 12:16:35;;;;;;;87.28;60.25;;;;;;;;;;5007456;28;20026;-71
2022/03/24 12:19:01;;;;;;;49.25;37.03;;;;;;;;;;5001234;28;20069;-70
2022/03/24 12:21:31;;;;;;;14.98;8.10;;;;;;;;;;5007976;28;20102;-71
2022/03/24 12:24:08;;;;;;;20.30;10.77;;;;;;;;;;4993412;28;20442;-88
2022/03/24 12:27:01;;;;;;;27.00;14.60;;;;;;;;;;4986441;28;20027;-72
2022/03/24 12:29:27;;;;;;;45.28;25.27;;;;;;;;;;4998322;28;20078;-70
2022/03/24 12:32:05;;;;;;;42.45;23.60;;;;;;;;;;5007364;28;20037;-72
2022/03/24 12:34:44;;;;;;;15.90;9.10;;;;;;;;;;5001981;28;20471;-73
2022/03/24 12:37:30;;;;;;;21.15;11.15;;;;;;;;;;5002654;28;20403;-74
2022/03/24 12:40:17;;;;;;;25.70;14.98;;;;;;;;;;5010390;28;20041;-73
2022/03/24 12:42:47;;;;;;;20.13;12.45;;;;;;;;;;5069778;28;20025;-72
2022/03/24 12:45:26;;;;;;;22.05;8.98;;;;;;;;;;5063415;28;20435;-72
2022/03/24 12:47:52;;;;;;;14.45;7.65;;;;;;;;;;5063468;28;20492;-72
2022/03/24 12:50:18;;;;;;;13.38;7.43;;;;;;;;;;5071492;28;20133;-73
2022/03/24 12:53:04;;;;;;;16.80;7.43;;;;;;;;;;5066917;28;20115;-86
2022/03/24 12:55:33;;;;;;;18.42;7.18;;;;;;;;;;5060976;28;20122;-74
2022/03/24 12:58:15;;;;;;;18.80;6.78;;;;;;;;;;5067921;28;20541;-75
2022/03/24 13:00:42;;;;;;;12.82;6.75;;;;;;;;;;5067505;28;20040;-75
2022/03/24 13:03:10;;;;;;;15.38;7.10;;;;;;;;;;5065265;28;20036;-73
2022/03/24 13:05:37;;;;;;;12.23;6.93;;;;;;;;;;5070255;28;20074;-73
2022/03/24 13:08:05;;;;;;;16.52;6.55;;;;;;;;;;5060027;28;20029;-71
2022/03/24 13:10:35;;;;;;;26.25;10.02;;;;;;;;;;5053886;28;20490;-73
2022/03/24 13:13:03;;;;;;;19.48;9.65;;;;;;;;;;5064319;28;20136;-73
2022/03/24 13:15:37;;;;;;;16.60;8.43;;;;;;;;;;5061377;28;20821;-71
2022/03/24 13:18:03;;;;;;;16.20;10.85;;;;;;;;;;5064321;28;20044;-73
2022/03/24 13:20:40;;;;;;;20.13;9.00;;;;;;;;;;5067217;28;20137;-73
2022/03/24 13:23:09;;;;;;;14.48;7.95;;;;;;;;;;5072766;28;20032;-73
2022/03/24 13:25:36;;;;;;;16.35;9.20;;;;;;;;;;5063674;28;20025;-74
2022/03/24 13:28:04;;;;;;;19.55;9.85;;;;;;;;;;5058251;28;20074;-74
2022/03/24 13:30:32;;;;;;;18.25;9.05;;;;;;;;;;5069395;28;20043;-74
2022/03/24 13:33:06;;;;;;;16.08;8.30;;;;;;;;;;5067295;28;20040;-74
2022/03/24 13:35:37;;;;;;;14.07;7.95;;;;;;;;;;5067424;28;20330;-74
2022/03/24 13:38:07;;;;;;;14.27;8.05;;;;;;;;;;5067404;28;20020;-73
2022/03/24 13:40:36;;;;;;;20.83;11.90;;;;;;;;;;5064528;28;20032;-75
2022/03/24 13:43:03;;;;;;;19.23;11.25;;;;;;;;;;5073153;28;20031;-73
2022/03/24 13:45:29;;;;;;;22.65;13.52;;;;;;;;;;5070977;28;20051;-75
2022/03/24 13:48:09;;;;;;;17.60;9.20;;;;;;;;;;5067983;28;20028;-74
2022/03/24 13:50:37;;;;;;;18.20;9.38;;;;;;;;;;5068768;28;20031;-73
2022/03/24 13:53:20;;;;;;;11.90;6.70;;;;;;;;;;5071232;28;20115;-72
2022/03/24 13:55:47;;;;;;;26.13;14.73;;;;;;;;;;5066285;28;20031;-80
2022/03/24 13:58:14;;;;;;;14.98;9.15;;;;;;;;;;5059100;28;20285;-76
2022/03/24 14:00:42;;;;;;;15.60;9.35;;;;;;;;;;5064975;28;20025;-76
2022/03/24 14:03:14;;;;;;;15.15;8.00;;;;;;;;;;5065215;28;20044;-72
2022/03/24 14:05:44;;;;;;;22.25;13.75;;;;;;;;;;5059177;28;20047;-76
2022/03/24 14:08:11;;;;;;;22.08;11.73;;;;;;;;;;5065666;28;20128;-75
2022/03/24 14:10:43;;;;;;;14.07;8.30;;;;;;;;;;5070522;28;20451;-74
2022/03/24 14:13:14;;;;;;;17.75;7.95;;;;;;;;;;5066442;28;20118;-73
2022/03/24 14:15:44;;;;;;;18.25;10.50;;;;;;;;;;5057028;28;20497;-74
2022/03/24 14:18:21;;;;;;;14.45;7.47;;;;;;;;;;5056858;28;20029;-72
2022/03/24 14:20:50;;;;;;;16.75;7.50;;;;;;;;;;5055548;28;20167;-77
2022/03/24 14:23:35;;;;;;;19.17;7.97;;;;;;;;;;5069642;28;20036;-72
2022/03/24 14:26:07;;;;;;;20.30;8.70;;;;;;;;;;5058649;28;20048;-74
2022/03/24 14:28:40;;;;;;;23.02;12.10;;;;;;;;;;5062566;28;20053;-74
2022/03/24 14:31:12;;;;;;;24.08;8.40;;;;;;;;;;5062660;28;20020;-74
2022/03/24 14:33:49;;;;;;;20.95;8.52;;;;;;;;;;5061295;28;20027;-74
2022/03/24 14:36:15;;;;;;;20.92;11.25;;;;;;;;;;5059464;28;20017;-74
2022/03/24 14:39:00;;;;;;;19.73;10.27;;;;;;;;;;5064009;28;20093;-73